CNS weather

Cairns International Airport
Cairns, Queensland, Australia

Public forecast

Using degrees Celsius for public forecast. Weather courtesy of forecast.io.

METAR (pilot weather report)

Retrieved 2018/07/18 00:30 UTC (0 seconds ago):

YBCS 180030Z 18006KT 9999 -SHRA FEW008 SCT017 BKN025 22/20 Q1018 FM0200 12012KT 9999 -SHRA SCT025 BKN040 INTER 0030/0330 4000 SHRA FEW010 BKN018

TAF (pilot weather forecast)

Forecast is more than 12 hours old.

Retrieved 2018/07/17 00:00 UTC (1 day ago):

TAF YBCS 172331Z 1800/1824 15007KT 9999 -SHRA FEW010 SCT022 BKN040 FM180200 12012KT 9999 -SHRA SCT025 BKN040 FM181200 14008KT 9999 FEW025 BKN035 INTER 1800/1812 4000 SHRA FEW008 BKN018